Map

Track Data

SID SEASON NUMBER BASIN SUBBASIN NAME ISO_TIME NATURE LAT LON WMO_WIND WMO_PRES WMO_AGENCY TRACK_TYPE DIST2LAND LANDFALL IFLAG USA_AGENCY USA_ATCF_ID USA_LAT USA_LON USA_RECORD USA_STATUS USA_WIND USA_PRES USA_SSHS USA_R34_NE USA_R34_SE USA_R34_SW USA_R34_NW USA_R50_NE USA_R50_SE USA_R50_SW USA_R50_NW USA_R64_NE USA_R64_SE USA_R64_SW USA_R64_NW USA_POCI USA_ROCI USA_RMW USA_EYE TOKYO_LAT TOKYO_LON TOKYO_GRADE TOKYO_WIND TOKYO_PRES TOKYO_R50_DIR TOKYO_R50_LONG TOKYO_R50_SHORT TOKYO_R30_DIR TOKYO_R30_LONG TOKYO_R30_SHORT TOKYO_LAND CMA_LAT CMA_LON CMA_CAT CMA_WIND CMA_PRES HKO_LAT HKO_LON HKO_CAT HKO_WIND HKO_PRES NEWDELHI_LAT NEWDELHI_LON NEWDELHI_GRADE NEWDELHI_WIND NEWDELHI_PRES NEWDELHI_CI NEWDELHI_DP NEWDELHI_POCI REUNION_LAT REUNION_LON REUNION_TYPE REUNION_WIND REUNION_PRES REUNION_TNUM REUNION_CI REUNION_RMW REUNION_R34_NE REUNION_R34_SE REUNION_R34_SW REUNION_R34_NW REUNION_R50_NE REUNION_R50_SE REUNION_R50_SW REUNION_R50_NW REUNION_R64_NE REUNION_R64_SE REUNION_R64_SW REUNION_R64_NW BOM_LAT BOM_LON BOM_TYPE BOM_WIND BOM_PRES BOM_TNUM BOM_CI BOM_RMW BOM_R34_NE BOM_R34_SE BOM_R34_SW BOM_R34_NW BOM_R50_NE BOM_R50_SE BOM_R50_SW BOM_R50_NW BOM_R64_NE BOM_R64_SE BOM_R64_SW BOM_R64_NW BOM_ROCI BOM_POCI BOM_EYE BOM_POS_METHOD BOM_PRES_METHOD NADI_LAT NADI_LON NADI_CAT NADI_WIND NADI_PRES WELLINGTON_LAT WELLINGTON_LON WELLINGTON_WIND WELLINGTON_PRES DS824_LAT DS824_LON DS824_STAGE DS824_WIND DS824_PRES TD9636_LAT TD9636_LON TD9636_STAGE TD9636_WIND TD9636_PRES TD9635_LAT TD9635_LON TD9635_WIND TD9635_PRES TD9635_ROCI NEUMANN_LAT NEUMANN_LON NEUMANN_CLASS NEUMANN_WIND NEUMANN_PRES MLC_LAT MLC_LON MLC_CLASS MLC_WIND MLC_PRES USA_GUST BOM_GUST BOM_GUST_PER REUNION_GUST REUNION_GUST_PER USA_SEAHGT USA_SEARAD_NE USA_SEARAD_SE USA_SEARAD_SW USA_SEARAD_NW STORM_SPEED STORM_DIR
1965014S15169 1965 6 SP MM NOT_NAMED 1965-01-14 00:00:00 TS -15.4000 168.700 main 139 139 O________OO_O_ jtwc_sh SH171965 -15.4000 168.700 -1 -15.4000 168.700 TC 35 -15.4000 168.700 2 -15.4000 168.700 TC 30 8 124
1965014S15169 1965 6 SP MM NOT_NAMED 1965-01-14 03:00:00 TS -15.6381 169.060 main 159 154 P________PP_P_ SH171965 -15.6576 169.055 -1 -15.6576 169.055 TC 35 -15.6495 169.074 2 -15.5876 169.057 TC 32 8 125
1965014S15169 1965 6 SP MM NOT_NAMED 1965-01-14 06:00:00 TS -15.8722 169.407 main 176 176 O________OP_O_ jtwc_sh SH171965 -15.9000 169.400 -1 -15.9000 169.400 TC 35 -15.8889 169.428 2 -15.8000 169.400 TC 35 8 126
1965014S15169 1965 6 SP MM NOT_NAMED 1965-01-14 09:00:00 TS -16.0972 169.726 main 204 204 P________PP_P_ SH171965 -16.1150 169.723 -1 -16.1150 169.723 TC 35 -16.1088 169.744 2 -16.0500 169.715 TC 35 7 127
1965014S15169 1965 6 SP MM NOT_NAMED 1965-01-14 12:00:00 TS -16.3000 170.000 main 234 234 O________OO_O_ jtwc_sh SH171965 -16.3000 170.000 -1 -16.3000 170.000 TC 35 -16.3000 170.000 2 -16.3000 170.000 TC 35 6 129
1965014S15169 1965 6 SP MM NOT_NAMED 1965-01-14 15:00:00 TS -16.4686 170.212 main 255 255 P________PP_P_ SH171965 -16.4499 170.200 -1 -16.4499 170.200 TC 35 -16.4597 170.192 2 -16.5149 170.258 TC 35 5 129
1965014S15169 1965 6 SP MM NOT_NAMED 1965-01-14 18:00:00 TS -16.6276 170.419 main 277 277 O________OP_O_ jtwc_sh SH171965 -16.6000 170.400 -1 -16.6000 170.400 TC 35 -16.6104 170.375 2 -16.7000 170.500 TC 35 5 128
1965014S15169 1965 6 SP MM NOT_NAMED 1965-01-14 21:00:00 TS -16.7849 170.637 main 299 299 P________PP_P_ SH171965 -16.7696 170.625 -1 -16.7696 170.625 TC 35 -16.7810 170.620 2 -16.8195 170.676 TC 35 7 124
1965014S15169 1965 6 SP MM NOT_NAMED 1965-01-15 00:00:00 TS -17.0000 171.000 main 343 343 O________OO_O_ jtwc_sh SH171965 -17.0000 171.000 -1 -17.0000 171.000 TC 35 -17.0000 171.000 2 -17.0000 171.000 TC 35 11 120
1965014S15169 1965 6 SP MM NOT_NAMED 1965-01-15 03:00:00 TS -17.3335 171.634 main 411 411 P________PP_P_ SH171965 -17.3276 171.625 -1 -17.3276 171.625 TC 35 -17.3010 171.613 2 -17.3779 171.674 TC 37 15 118
1965014S15169 1965 6 SP MM NOT_NAMED 1965-01-15 06:00:00 TS -17.7123 172.416 main 504 423 O________OP_O_ jtwc_sh SH171965 -17.7000 172.400 -1 -17.7000 172.400 TC 35 -17.6494 172.364 2 -17.8000 172.500 TC 40 17 116
1965014S15169 1965 6 SP MM NOT_NAMED 1965-01-15 09:00:00 TS -18.0575 173.206 main 423 341 P________PP_P_ SH171965 -18.0499 173.193 -1 -18.0499 173.193 TC 35 -18.0228 173.183 2 -18.1073 173.258 TC 40 17 115
1965014S15169 1965 6 SP MM NOT_NAMED 1965-01-15 12:00:00 TS -18.4000 174.000 main 341 275 O________OO_O_ jtwc_sh SH171965 -18.4000 174.000 -1 -18.4000 174.000 TC 35 -18.4000 174.000 2 -18.4000 174.000 TC 40 16 115
1965014S15169 1965 6 SP MM NOT_NAMED 1965-01-15 15:00:00 TS -18.7317 174.756 main 265 220 P________PP_P_ SH171965 -18.7498 174.773 -1 -18.7498 174.773 TC 35 -18.6853 174.773 2 -18.7422 174.708 TC 37 16 116
1965014S15169 1965 6 SP MM NOT_NAMED 1965-01-15 18:00:00 TS -19.0702 175.480 main 217 184 O________OP_O_ jtwc_sh SH171965 -19.1000 175.500 -1 -19.1000 175.500 TC 35 -18.9807 175.522 2 -19.1000 175.400 TC 35 15 116
1965014S15169 1965 6 SP MM NOT_NAMED 1965-01-15 21:00:00 TS -19.3820 176.190 main 185 177 P________PP_P_ SH171965 -19.3975 176.203 -1 -19.3975 176.203 TC 35 -19.3356 176.210 2 -19.3977 176.145 TC 35 14 120
1965014S15169 1965 6 SP MM NOT_NAMED 1965-01-16 00:00:00 TS -19.8000 176.800 main 197 197 O________OO_O_ jtwc_sh SH171965 -19.8000 176.800 -1 -19.8000 176.800 TC 35 -19.8000 176.800 2 -19.8000 176.800 TC 35 15 137
1965014S15169 1965 6 SP MM NOT_NAMED 1965-01-16 03:00:00 TS -20.4405 177.248 main 246 246 P________PP_P_ SH171965 -20.4322 177.253 -1 -20.4322 177.253 TC 35 -20.4655 177.227 2 -20.4321 177.260 TC 35 16 152
1965014S15169 1965 6 SP MM NOT_NAMED 1965-01-16 06:00:00 TS -21.2094 177.591 main 325 325 O________OP_O_ jtwc_sh SH171965 -21.2000 177.600 -1 -21.2000 177.600 TC 35 -21.2375 177.562 2 -21.2000 177.600 TC 35 17 159
1965014S15169 1965 6 SP MM NOT_NAMED 1965-01-16 09:00:00 TS -22.0212 177.886 main 413 413 P________PP_P_ SH171965 -22.0147 177.893 -1 -22.0147 177.893 TC 35 -22.0408 177.865 2 -22.0147 177.893 TC 35 17 160
1965014S15169 1965 6 SP MM NOT_NAMED 1965-01-16 12:00:00 TS -22.8000 178.200 main 503 503 O________OO_O_ jtwc_sh SH171965 -22.8000 178.200 -1 -22.8000 178.200 TC 35 -22.8000 178.200 2 -22.8000 178.200 TC 35 16 155
1965014S15169 1965 6 SP MM NOT_NAMED 1965-01-16 15:00:00 TS -23.4478 178.613 main 571 571 P________PP_P_ SH171965 -23.4449 178.613 -1 -23.4449 178.613 TC 35 -23.4567 178.615 2 -23.4449 178.613 TC 35 15 146
1965014S15169 1965 6 SP MM NOT_NAMED 1965-01-16 18:00:00 TS -24.0057 179.100 main 644 644 O________OP_O_ jtwc_sh SH171965 -24.0000 179.100 -1 -24.0000 179.100 TC 35 -24.0227 179.101 2 -24.0000 179.100 TC 35 14 139
1965014S15169 1965 6 SP MM NOT_NAMED 1965-01-16 21:00:00 TS -24.5147 179.637 main 708 708 P________PP_P_ SH171965 -24.5104 179.637 -1 -24.5104 179.637 TC 35 -24.5273 179.637 2 -24.5104 179.637 TC 32 14 135
1965014S15169 1965 6 SP MM NOT_NAMED 1965-01-17 00:00:00 TS -25.0000 180.200 main 777 O________OO_O_ jtwc_sh SH171965 -25.0000 -179.800 -1 -25.0000 180.200 TC 35 -25.0000 -179.800 2 -25.0000 -179.800 TC 30 14 134

Digital Typhoon Data and Search

About IBTrACS Database

This database is a web-friendly format of International Best Track Archive for Climate Stewardship (IBTrACS), a global best track data archive curated by NOAA dating back to 1842.

Updated: 2021-10-27